Terminal Aerodrome Forecast
Issued by NWS

Home | Current Version | Previous Version | Text Only | Print | Product List | Glossary On
Versions: 1 2 3 4 5 6 7 8 9 10 11 12 13
000
FTUS41 KPBZ 252324
TAFMGW
TAF
KMGW 252324Z 2600/2624 04004KT 6SM -RA OVC050
      TEMPO 2600/2602 4SM -RA OVC025
     FM260200 VRB03KT 4SM -RA BR OVC015
     FM260800 02005KT P6SM OVC025
     FM261400 04006KT P6SM BKN050=

USA.gov is the U.S. government's official web portal to all federal, state and local government web resources and services.